Time;durP1;ratioP1;P1;durP2;ratioP2;P2;SDS_P1;SDS_P2;PMS_P1;PMS_P2;Temp;Humidity;BMP_temperature;BMP_pressure;BME280_temperature;BME280_humidity;BME280_pressure;Samples;Min_cycle;Max_cycle;Signal;HPM_P1;HPM_P2
2022/10/11 00:00:41;;;;;;;16.17;2.03;;;;;;;8.09;100.00;101826.66;5012031;28;20634;-47
2022/10/11 00:03:07;;;;;;;9.52;2.03;;;;;;;8.15;100.00;101836.34;5010982;28;20582;-47
2022/10/11 00:05:33;;;;;;;13.77;2.10;;;;;;;8.11;100.00;101830.19;5011933;28;20204;-49
2022/10/11 00:07:59;;;;;;;9.57;1.77;;;;;;;7.98;100.00;101833.88;5010614;28;20569;-48
2022/10/11 00:10:25;;;;;;;11.57;1.95;;;;;;;8.01;100.00;101834.72;5011705;28;20181;-47
2022/10/11 00:12:53;;;;;;;12.48;2.00;;;;;;;8.00;100.00;101826.72;5011658;28;20358;-47
2022/10/11 00:15:21;;;;;;;9.85;1.75;;;;;;;8.08;100.00;101846.22;5012167;28;20406;-48
2022/10/11 00:17:47;;;;;;;15.88;2.20;;;;;;;8.00;100.00;101838.31;5011679;28;20179;-49
2022/10/11 00:20:13;;;;;;;10.48;1.90;;;;;;;7.96;100.00;101847.25;5011847;28;20544;-49
2022/10/11 00:22:40;;;;;;;11.68;1.95;;;;;;;7.89;100.00;101850.84;5011895;28;20193;-47
2022/10/11 00:25:08;;;;;;;11.20;2.22;;;;;;;7.97;100.00;101845.44;5011777;28;20177;-47
2022/10/11 00:27:34;;;;;;;15.93;1.85;;;;;;;7.94;100.00;101858.84;5011121;28;20185;-48
2022/10/11 00:30:01;;;;;;;9.70;2.10;;;;;;;7.93;100.00;101857.06;5010547;28;20203;-46
2022/10/11 00:32:27;;;;;;;14.43;2.42;;;;;;;7.95;100.00;101869.47;5011594;28;20193;-45
2022/10/11 00:34:52;;;;;;;10.13;1.85;;;;;;;7.95;100.00;101860.59;5011836;28;20226;-47
2022/10/11 00:37:19;;;;;;;12.32;2.33;;;;;;;7.95;100.00;101863.25;4993876;28;20173;-47
2022/10/11 00:39:45;;;;;;;10.65;2.03;;;;;;;7.95;100.00;101863.25;5011689;28;20188;-48
2022/10/11 00:42:15;;;;;;;10.27;2.45;;;;;;;7.92;100.00;101877.53;5011410;28;20910;-46
2022/10/11 00:44:49;;;;;;;11.20;1.77;;;;;;;7.84;100.00;101864.25;5010209;28;20263;-47
2022/10/11 00:47:20;;;;;;;10.75;2.72;;;;;;;7.90;100.00;101878.44;5011578;28;20172;-49
2022/10/11 00:49:59;;;;;;;15.57;2.00;;;;;;;7.85;100.00;101875.84;5064153;27;20564;-50
2022/10/11 00:52:37;;;;;;;9.70;1.70;;;;;;;7.90;100.00;101882.00;5067353;28;20198;-47
2022/10/11 00:55:13;;;;;;;6.50;1.80;;;;;;;7.92;100.00;101882.88;5051412;28;20191;-51
2022/10/11 00:57:42;;;;;;;13.48;2.13;;;;;;;7.87;100.00;101887.38;5048512;28;20182;-50
2022/10/11 01:00:10;;;;;;;7.47;1.77;;;;;;;7.84;100.00;101887.38;5052928;28;20218;-52
2022/10/11 01:02:37;;;;;;;10.02;2.72;;;;;;;7.89;100.00;101877.53;5054023;28;20206;-49
2022/10/11 01:05:04;;;;;;;11.38;1.63;;;;;;;7.88;100.00;101885.59;5053789;28;20183;-52
2022/10/11 01:07:31;;;;;;;9.75;2.05;;;;;;;7.82;100.00;101883.84;5061475;28;20265;-53
2022/10/11 01:09:57;;;;;;;13.73;2.22;;;;;;;7.82;100.00;101882.06;5057732;28;20214;-51
2022/10/11 01:12:25;;;;;;;12.38;2.08;;;;;;;7.79;100.00;101884.78;5054160;28;20648;-50
2022/10/11 01:15:17;;;;;;;11.05;1.85;;;;;;;7.72;100.00;101882.16;5054095;28;20553;-50
2022/10/11 01:17:56;;;;;;;14.02;1.88;;;;;;;7.78;100.00;101885.69;5060207;28;20179;-53
2022/10/11 01:20:56;;;;;;;9.50;1.88;;;;;;;7.71;100.00;101889.28;5059269;28;20559;-53
2022/10/11 01:23:46;;;;;;;8.35;1.92;;;;;;;7.68;100.00;101893.78;5046619;28;20207;-49
2022/10/11 01:26:36;;;;;;;12.93;1.88;;;;;;;7.76;100.00;101887.47;5051239;28;20258;-52
2022/10/11 01:29:07;;;;;;;12.52;2.30;;;;;;;7.70;100.00;101900.88;5054924;28;20700;-52
2022/10/11 01:31:39;;;;;;;8.73;2.15;;;;;;;7.75;100.00;101906.16;5048757;28;20262;-52
2022/10/11 01:34:13;;;;;;;11.80;2.00;;;;;;;7.70;100.00;101902.66;5045227;28;20203;-53
2022/10/11 01:36:47;;;;;;;12.95;1.85;;;;;;;7.57;100.00;101908.09;5057423;28;20184;-52
2022/10/11 01:39:26;;;;;;;6.30;1.83;;;;;;;7.52;100.00;101898.34;5051158;28;20180;-53
2022/10/11 01:41:55;;;;;;;10.18;2.17;;;;;;;7.55;100.00;101914.34;5049717;28;20235;-52
2022/10/11 01:44:24;;;;;;;7.88;1.50;;;;;;;7.58;100.00;101917.84;5052984;28;20183;-50
2022/10/11 01:46:53;;;;;;;12.75;2.58;;;;;;;7.52;100.00;101909.91;5050989;28;20187;-49
2022/10/11 01:49:19;;;;;;;7.88;1.85;;;;;;;7.59;100.00;101916.97;5056667;28;20625;-53
2022/10/11 01:51:51;;;;;;;13.15;2.35;;;;;;;7.60;100.00;101915.16;5053479;28;20207;-50
2022/10/11 01:54:49;;;;;;;14.02;2.30;;;;;;;7.60;100.00;101918.72;5052779;28;20250;-50
2022/10/11 01:57:23;;;;;;;14.88;2.67;;;;;;;7.58;100.00;101915.19;5049537;28;20190;-52
2022/10/11 02:00:16;;;;;;;7.13;1.55;;;;;;;7.50;100.00;101922.38;5041887;28;20838;-53
2022/10/11 02:03:15;;;;;;;17.13;2.50;;;;;;;7.45;100.00;101926.84;5045198;28;20211;-53
2022/10/11 02:05:54;;;;;;;32.40;2.90;;;;;;;7.49;100.00;101930.38;5040473;28;20186;-50
2022/10/11 02:08:45;;;;;;;14.48;2.67;;;;;;;7.51;100.00;101924.13;5034769;28;20195;-52
2022/10/11 02:11:27;;;;;;;13.15;2.65;;;;;;;7.49;100.00;101933.03;5035847;28;20175;-50
2022/10/11 02:14:05;;;;;;;14.50;2.22;;;;;;;7.55;100.00;101933.00;5040292;28;20258;-51
2022/10/11 02:16:40;;;;;;;14.55;2.70;;;;;;;7.60;100.00;101928.50;5033922;28;20249;-52
2022/10/11 02:19:08;;;;;;;8.13;1.58;;;;;;;7.65;100.00;101940.00;5037672;28;20555;-51
2022/10/11 02:21:39;;;;;;;15.65;2.38;;;;;;;7.63;100.00;101941.81;5036985;28;20226;-51
2022/10/11 02:24:21;;;;;;;19.90;2.40;;;;;;;7.60;100.00;101940.06;5039594;28;20283;-50
2022/10/11 02:26:51;;;;;;;10.73;2.45;;;;;;;7.56;100.00;101935.63;5038452;28;20190;-53
2022/10/11 02:29:19;;;;;;;8.27;2.10;;;;;;;7.46;100.00;101941.09;5037003;28;20196;-51
2022/10/11 02:31:46;;;;;;;9.45;2.28;;;;;;;7.52;100.00;101941.00;5041156;28;20212;-51
2022/10/11 02:34:19;;;;;;;15.82;2.15;;;;;;;7.49;100.00;101946.38;5044841;28;20183;-48
2022/10/11 02:36:59;;;;;;;16.35;2.83;;;;;;;7.48;100.00;101956.16;5034523;28;20180;-52
2022/10/11 02:39:31;;;;;;;12.15;2.00;;;;;;;7.49;100.00;101943.72;5040657;28;20183;-53
2022/10/11 02:42:01;;;;;;;11.45;2.28;;;;;;;7.54;100.00;101942.78;5040332;28;20207;-51
2022/10/11 02:44:39;;;;;;;18.00;2.60;;;;;;;7.48;100.00;101952.59;5036153;28;20190;-51
2022/10/11 02:47:06;;;;;;;16.38;2.42;;;;;;;7.43;100.00;101964.22;5038987;28;20191;-52
2022/10/11 02:49:33;;;;;;;16.00;2.67;;;;;;;7.42;100.00;101959.75;5033041;28;20792;-52
2022/10/11 02:51:59;;;;;;;12.25;2.35;;;;;;;7.50;100.00;101956.13;5037525;28;20212;-51
2022/10/11 02:54:25;;;;;;;11.25;2.10;;;;;;;7.43;100.00;101965.97;5030745;28;20188;-52
2022/10/11 02:56:51;;;;;;;13.93;2.10;;;;;;;7.46;100.00;101970.41;5035973;28;20188;-51
2022/10/11 02:59:17;;;;;;;20.05;2.88;;;;;;;7.47;100.00;101965.03;5036063;28;20614;-51
2022/10/11 03:01:43;;;;;;;16.48;2.40;;;;;;;7.45;100.00;101963.28;5048620;28;20208;-50
2022/10/11 03:04:08;;;;;;;13.20;2.72;;;;;;;7.50;100.00;101962.38;5037434;28;20207;-53
2022/10/11 03:06:34;;;;;;;18.70;2.72;;;;;;;7.43;100.00;101973.97;5031612;28;20215;-51
2022/10/11 03:09:00;;;;;;;17.88;2.75;;;;;;;7.44;100.00;101975.75;5030692;28;20682;-51
2022/10/11 03:11:25;;;;;;;12.00;2.33;;;;;;;7.54;100.00;101972.13;5038023;28;20211;-51
2022/10/11 03:13:51;;;;;;;16.88;2.50;;;;;;;7.48;100.00;101973.94;5031009;28;20750;-52
2022/10/11 03:16:17;;;;;;;18.60;2.80;;;;;;;7.51;100.00;101981.91;5039284;28;20183;-51
2022/10/11 03:18:42;;;;;;;12.32;2.33;;;;;;;7.51;100.00;101977.47;5038498;28;20557;-53
2022/10/11 03:21:08;;;;;;;12.57;2.70;;;;;;;7.43;100.00;101981.97;5033410;28;20187;-52
2022/10/11 03:23:34;;;;;;;13.80;2.13;;;;;;;7.37;100.00;101982.03;5045230;28;20196;-51
2022/10/11 03:25:59;;;;;;;14.52;2.30;;;;;;;7.38;100.00;101981.13;5034742;28;20267;-50
2022/10/11 03:28:25;;;;;;;13.40;2.50;;;;;;;7.46;100.00;101986.41;5031380;28;20211;-52
2022/10/11 03:30:51;;;;;;;13.98;2.47;;;;;;;7.43;100.00;101992.63;5036519;28;20253;-51
2022/10/11 03:33:16;;;;;;;13.45;2.17;;;;;;;7.46;100.00;101989.06;5036439;28;20252;-51
2022/10/11 03:35:44;;;;;;;11.98;2.40;;;;;;;7.43;100.00;101998.88;5032389;28;20184;-51
2022/10/11 03:38:15;;;;;;;19.15;2.95;;;;;;;7.40;100.00;101993.53;5045753;28;20261;-52
2022/10/11 03:40:42;;;;;;;11.63;2.30;;;;;;;7.41;100.00;101997.06;5047188;28;20312;-52
2022/10/11 03:43:09;;;;;;;13.07;2.65;;;;;;;7.42;100.00;102007.75;5031696;28;20846;-52
2022/10/11 03:45:35;;;;;;;18.02;3.20;;;;;;;7.38;100.00;102008.66;5038427;28;20696;-49
2022/10/11 03:48:01;;;;;;;14.32;2.63;;;;;;;7.38;100.00;102007.78;5036009;28;20214;-51
2022/10/11 03:50:27;;;;;;;21.98;2.90;;;;;;;7.32;100.00;102016.69;5035942;28;20204;-51
2022/10/11 03:52:53;;;;;;;9.48;2.40;;;;;;;7.30;100.00;102018.47;5033194;28;20211;-50
2022/10/11 03:55:18;;;;;;;13.30;2.17;;;;;;;7.27;100.00;102020.28;5031081;28;20191;-51
2022/10/11 03:57:44;;;;;;;15.45;2.78;;;;;;;7.28;100.00;102030.94;5038509;28;20539;-52
2022/10/11 04:00:10;;;;;;;19.02;2.70;;;;;;;7.20;100.00;102019.44;5035860;28;20227;-51
2022/10/11 04:02:35;;;;;;;13.25;2.80;;;;;;;7.11;100.00;102025.69;5036475;28;20204;-48
2022/10/11 04:05:01;;;;;;;13.90;3.25;;;;;;;7.19;100.00;102022.97;5030404;28;20168;-50
2022/10/11 04:07:27;;;;;;;15.32;2.65;;;;;;;7.16;100.00;102023.88;5031033;28;20195;-53
2022/10/11 04:09:53;;;;;;;16.38;2.90;;;;;;;7.20;100.00;102035.44;5039043;28;20196;-52
2022/10/11 04:12:18;;;;;;;13.85;2.60;;;;;;;7.12;100.00;102035.44;5032270;28;20561;-53
2022/10/11 04:14:44;;;;;;;12.43;2.42;;;;;;;7.17;100.00;102038.09;5044198;28;20252;-51
2022/10/11 04:17:10;;;;;;;15.82;2.45;;;;;;;7.07;100.00;102041.72;5042003;28;20191;-51
2022/10/11 04:19:36;;;;;;;17.40;3.05;;;;;;;7.03;100.00;102048.81;5038581;28;20175;-51
2022/10/11 04:22:05;;;;;;;19.50;2.90;;;;;;;7.05;100.00;102048.81;5038805;28;20287;-53
2022/10/11 04:24:30;;;;;;;13.68;2.40;;;;;;;7.06;100.00;102043.47;5033899;28;20176;-53
2022/10/11 04:26:56;;;;;;;12.23;2.60;;;;;;;7.09;100.00;102051.47;5030601;28;20199;-52
2022/10/11 04:29:22;;;;;;;17.15;2.95;;;;;;;6.97;100.00;102059.50;5037977;28;20307;-52
2022/10/11 04:31:47;;;;;;;13.05;2.03;;;;;;;6.99;100.00;102053.25;5038283;28;20219;-52
2022/10/11 04:34:13;;;;;;;11.98;2.70;;;;;;;6.95;100.00;102047.94;5035501;28;20184;-53
2022/10/11 04:36:38;;;;;;;13.02;2.72;;;;;;;6.87;100.00;102041.78;5034784;28;20673;-52
2022/10/11 04:39:05;;;;;;;12.60;2.03;;;;;;;6.88;100.00;102059.53;5045451;28;20479;-51
2022/10/11 04:41:31;;;;;;;9.63;2.15;;;;;;;6.91;100.00;102052.44;5046099;28;20281;-49
2022/10/11 04:43:57;;;;;;;13.27;2.83;;;;;;;6.85;100.00;102055.09;5031869;28;20207;-49
2022/10/11 04:46:23;;;;;;;10.80;2.03;;;;;;;6.68;100.00;102046.28;5035771;28;20214;-48
2022/10/11 04:48:48;;;;;;;12.32;2.13;;;;;;;6.73;100.00;102063.13;5036688;28;20200;-49
2022/10/11 04:51:14;;;;;;;14.65;2.38;;;;;;;6.70;100.00;102064.00;5035866;28;20186;-52
2022/10/11 04:53:40;;;;;;;12.95;2.83;;;;;;;6.78;100.00;102064.00;5045027;28;20259;-51
2022/10/11 04:56:09;;;;;;;15.70;3.20;;;;;;;6.84;100.00;102060.44;5030943;28;20642;-47
2022/10/11 04:58:36;;;;;;;11.75;2.53;;;;;;;6.86;100.00;102067.50;5037489;28;20213;-48
2022/10/11 05:01:03;;;;;;;23.20;2.95;;;;;;;6.85;100.00;102065.75;5034227;28;20179;-49
2022/10/11 05:03:29;;;;;;;10.45;2.40;;;;;;;6.77;100.00;102073.75;5028346;28;20269;-49
2022/10/11 05:05:54;;;;;;;17.38;2.95;;;;;;;6.76;100.00;102077.31;5029223;28;20188;-49
2022/10/11 05:08:22;;;;;;;12.85;2.38;;;;;;;6.77;100.00;102091.53;5033260;28;20540;-47
2022/10/11 05:11:14;;;;;;;11.57;2.08;;;;;;;6.72;100.00;102094.19;5035745;28;20561;-48
2022/10/11 05:13:40;;;;;;;16.98;2.40;;;;;;;6.74;100.00;102092.41;5042349;28;20203;-49
2022/10/11 05:16:07;;;;;;;12.15;2.60;;;;;;;6.75;100.00;102091.50;5038429;28;20306;-50
2022/10/11 05:18:32;;;;;;;16.45;2.60;;;;;;;6.60;100.00;102099.53;5035942;28;20635;-49
2022/10/11 05:21:03;;;;;;;15.45;2.58;;;;;;;6.67;100.00;102097.75;5048358;22;20224;-46
2022/10/11 05:23:30;;;;;;;15.13;2.80;;;;;;;6.56;100.00;102105.78;4995733;28;20322;-48
2022/10/11 05:25:56;;;;;;;11.75;2.22;;;;;;;6.60;100.00;102103.09;5005002;28;20188;-45
2022/10/11 05:28:22;;;;;;;14.63;2.70;;;;;;;6.60;100.00;102110.19;4996808;28;20232;-47
2022/10/11 05:30:47;;;;;;;19.17;2.95;;;;;;;6.60;100.00;102120.84;5010072;28;20170;-47
2022/10/11 05:33:13;;;;;;;11.23;2.60;;;;;;;6.60;100.00;102113.75;5009548;28;20188;-50
2022/10/11 05:35:38;;;;;;;18.65;2.40;;;;;;;6.54;100.00;102119.09;5011617;28;20169;-52
2022/10/11 05:38:04;;;;;;;18.10;2.83;;;;;;;6.59;100.00;102130.59;5012723;28;20161;-45
2022/10/11 05:40:29;;;;;;;13.90;2.90;;;;;;;6.63;100.00;102138.63;5013799;28;20208;-49
2022/10/11 05:42:55;;;;;;;19.10;2.67;;;;;;;6.58;100.00;102142.16;5012073;28;20333;-47
2022/10/11 05:45:20;;;;;;;13.88;2.90;;;;;;;6.65;100.00;102158.09;5013346;28;20256;-47
2022/10/11 05:47:46;;;;;;;19.05;3.15;;;;;;;6.67;100.00;102151.00;5013606;28;20327;-47
2022/10/11 05:50:11;;;;;;;16.40;2.78;;;;;;;6.65;100.00;102158.09;5013213;28;20661;-49
2022/10/11 05:52:37;;;;;;;22.60;3.30;;;;;;;6.67;100.00;102164.31;5013080;28;20279;-46
2022/10/11 05:55:03;;;;;;;9.95;2.25;;;;;;;6.69;100.00;102167.88;5012884;28;20845;-48
2022/10/11 05:57:29;;;;;;;16.40;2.50;;;;;;;6.68;100.00;102164.34;5011892;28;20184;-48
2022/10/11 05:59:54;;;;;;;11.93;2.70;;;;;;;6.70;100.00;102167.88;5013313;28;20160;-48
2022/10/11 06:02:20;;;;;;;15.40;2.58;;;;;;;6.77;100.00;102174.09;5012895;28;20199;-55
2022/10/11 06:04:45;;;;;;;13.85;3.13;;;;;;;6.81;100.00;102182.06;5013364;28;20167;-48
2022/10/11 06:07:11;;;;;;;14.45;2.92;;;;;;;6.89;100.00;102181.19;5012891;28;20538;-47
2022/10/11 06:09:36;;;;;;;12.60;2.53;;;;;;;6.98;100.00;102170.53;5013003;28;20223;-50
2022/10/11 06:12:02;;;;;;;15.07;2.92;;;;;;;7.00;100.00;102176.75;5013254;28;20239;-50
2022/10/11 06:14:28;;;;;;;14.50;2.67;;;;;;;7.08;100.00;102184.72;5011250;28;20203;-48
2022/10/11 06:16:53;;;;;;;10.80;2.20;;;;;;;7.11;100.00;102187.38;5013027;28;20165;-47
2022/10/11 06:19:19;;;;;;;16.45;2.75;;;;;;;7.16;100.00;102183.81;5012592;28;20631;-47
2022/10/11 06:21:45;;;;;;;16.25;2.72;;;;;;;7.25;100.00;102188.22;5012853;28;20192;-51
2022/10/11 06:24:11;;;;;;;14.57;2.85;;;;;;;7.36;100.00;102185.53;5011548;28;20264;-49
2022/10/11 06:26:37;;;;;;;17.98;2.83;;;;;;;7.50;100.00;102188.13;5011331;28;20185;-49
2022/10/11 06:29:03;;;;;;;16.45;2.35;;;;;;;7.61;100.00;102187.22;5012638;28;20207;-52
2022/10/11 06:31:29;;;;;;;16.92;2.90;;;;;;;7.68;100.00;102192.53;5012439;28;20207;-50
2022/10/11 06:33:54;;;;;;;14.25;2.83;;;;;;;7.80;100.00;102193.34;5012992;28;20169;-47
2022/10/11 06:36:20;;;;;;;18.70;2.67;;;;;;;7.94;100.00;102197.75;5011375;28;20165;-49
2022/10/11 06:38:45;;;;;;;14.40;2.58;;;;;;;8.08;100.00;102198.53;5012475;28;20164;-46
2022/10/11 06:41:16;;;;;;;19.35;2.90;;;;;;;8.00;100.00;102195.94;5014406;28;20231;-47
2022/10/11 06:43:42;;;;;;;12.40;2.38;;;;;;;7.94;100.00;102195.09;5007628;28;20649;-50
2022/10/11 06:46:07;;;;;;;11.20;2.47;;;;;;;7.98;100.00;102192.38;4997833;28;20275;-49
2022/10/11 06:48:33;;;;;;;14.20;2.85;;;;;;;7.84;100.00;102204.91;5018149;28;20619;-50
2022/10/11 06:50:59;;;;;;;15.00;3.03;;;;;;;8.28;100.00;102206.41;5010923;28;20191;-48
2022/10/11 06:53:25;;;;;;;12.57;2.58;;;;;;;8.12;100.00;102196.75;5006734;28;20220;-48
2022/10/11 06:55:51;;;;;;;12.95;2.55;;;;;;;8.25;100.00;102206.47;5009758;28;20191;-47
2022/10/11 06:58:17;;;;;;;13.68;2.70;;;;;;;8.63;100.00;102203.53;5007351;28;20275;-49
2022/10/11 07:00:42;;;;;;;15.68;3.03;;;;;;;8.90;100.00;102201.53;5007632;28;20271;-48
2022/10/11 07:03:08;;;;;;;10.38;3.25;;;;;;;8.68;100.00;102213.28;5011735;28;20242;-49
2022/10/11 07:05:33;;;;;;;12.73;3.53;;;;;;;8.57;100.00;102219.63;5011464;28;20267;-48
2022/10/11 07:08:00;;;;;;;11.85;3.45;;;;;;;8.76;100.00;102214.13;5010742;28;20283;-48
2022/10/11 07:10:26;;;;;;;12.10;3.00;;;;;;;8.80;100.00;102215.88;5007957;28;20191;-48
2022/10/11 07:12:51;;;;;;;20.23;3.33;;;;;;;9.10;100.00;102212.03;5009020;28;20194;-48
2022/10/11 07:15:17;;;;;;;15.82;2.92;;;;;;;9.22;100.00;102208.34;5010301;28;20593;-48
2022/10/11 07:17:42;;;;;;;11.98;2.88;;;;;;;9.31;100.00;102212.69;5012543;28;20279;-46
2022/10/11 07:20:08;;;;;;;15.00;2.67;;;;;;;9.54;100.00;102221.38;5011555;28;20864;-47
2022/10/11 07:22:34;;;;;;;11.93;2.50;;;;;;;9.70;100.00;102212.22;5008452;28;20204;-48
2022/10/11 07:25:00;;;;;;;11.82;2.25;;;;;;;9.96;100.00;102226.19;5009677;28;20243;-48
2022/10/11 07:27:25;;;;;;;13.43;2.83;;;;;;;9.57;100.00;102215.09;5010021;28;20727;-49
2022/10/11 07:29:51;;;;;;;10.98;2.50;;;;;;;9.70;100.00;102211.34;5003248;28;20639;-47
2022/10/11 07:32:16;;;;;;;11.48;2.45;;;;;;;9.91;100.00;102215.56;4999755;28;20219;-46
2022/10/11 07:34:42;;;;;;;11.77;2.63;;;;;;;10.18;100.00;102216.09;4992150;28;20181;-48
2022/10/11 07:37:07;;;;;;;12.90;2.92;;;;;;;10.28;99.96;102225.75;5021043;28;20193;-49
2022/10/11 07:39:33;;;;;;;12.45;2.97;;;;;;;10.45;99.47;102231.78;5004385;28;20186;-48
2022/10/11 07:41:59;;;;;;;11.48;2.67;;;;;;;10.40;98.56;102232.75;5007455;28;20209;-45
2022/10/11 07:44:24;;;;;;;14.43;2.78;;;;;;;10.34;97.91;102232.84;5016319;28;20200;-48
2022/10/11 07:46:50;;;;;;;13.30;2.35;;;;;;;10.34;98.04;102232.84;5014087;28;20176;-51
2022/10/11 07:49:15;;;;;;;11.30;2.50;;;;;;;10.38;97.82;102232.78;5015580;28;20196;-48
2022/10/11 07:51:41;;;;;;;10.35;2.53;;;;;;;10.36;97.59;102236.38;5021722;28;20261;-46
2022/10/11 07:54:06;;;;;;;13.98;3.03;;;;;;;10.39;98.08;102239.91;5014269;28;20186;-47
2022/10/11 07:56:32;;;;;;;15.38;3.30;;;;;;;10.14;98.24;102239.31;5011629;28;20216;-46
2022/10/11 07:59:00;;;;;;;14.02;2.78;;;;;;;10.47;98.40;102242.47;5007359;28;20220;-46
2022/10/11 08:01:26;;;;;;;12.02;2.70;;;;;;;10.75;98.08;102236.69;5006687;28;20197;-46
2022/10/11 08:03:52;;;;;;;10.52;2.55;;;;;;;10.34;97.78;102232.84;5001111;28;20185;-46
2022/10/11 08:06:20;;;;;;;9.70;2.28;;;;;;;10.58;97.39;102234.25;5007128;28;20559;-46
2022/10/11 08:08:47;;;;;;;11.13;2.80;;;;;;;10.89;97.19;102232.00;5014627;28;20208;-47
2022/10/11 08:11:22;;;;;;;14.05;2.72;;;;;;;10.97;96.76;102232.72;5014744;28;20647;-51
2022/10/11 08:13:47;;;;;;;9.25;2.50;;;;;;;11.03;96.21;102237.09;5013066;28;20188;-47
2022/10/11 08:16:13;;;;;;;15.25;3.38;;;;;;;11.24;95.79;102225.09;5002232;28;20616;-49
2022/10/11 08:18:39;;;;;;;13.35;2.70;;;;;;;11.28;95.34;102234.84;5011343;28;20580;-49
2022/10/11 08:21:16;;;;;;;16.73;3.03;;;;;;;11.58;94.88;102237.88;5018292;28;20264;-48
2022/10/11 08:23:42;;;;;;;14.10;2.72;;;;;;;11.67;94.32;102240.38;5007543;28;20197;-47
2022/10/11 08:26:08;;;;;;;14.05;3.42;;;;;;;11.59;93.61;102237.84;5004994;28;20694;-49
2022/10/11 08:28:34;;;;;;;12.32;2.72;;;;;;;11.76;93.28;102240.16;5008911;28;20224;-48
2022/10/11 08:31:00;;;;;;;10.10;2.50;;;;;;;11.72;93.33;102238.50;5007412;28;20198;-50
2022/10/11 08:33:26;;;;;;;13.60;2.75;;;;;;;11.88;92.72;102249.81;5002583;28;20223;-49
2022/10/11 08:35:52;;;;;;;13.40;2.30;;;;;;;11.67;92.75;102243.94;5012008;28;20190;-46
2022/10/11 08:38:19;;;;;;;11.70;2.50;;;;;;;12.14;92.62;102251.97;5009808;28;20176;-48
2022/10/11 08:40:58;;;;;;;10.30;2.50;;;;;;;12.35;91.72;102250.56;5010926;28;20523;-49
2022/10/11 08:43:36;;;;;;;13.65;2.50;;;;;;;12.20;90.18;102245.53;5000788;28;20654;-46
2022/10/11 08:46:05;;;;;;;12.27;2.35;;;;;;;12.25;89.45;102247.22;5008645;28;20193;-44
2022/10/11 08:48:46;;;;;;;16.10;3.10;;;;;;;12.11;90.02;102249.31;5015523;28;20275;-48
2022/10/11 08:51:22;;;;;;;7.20;2.08;;;;;;;12.32;89.69;102254.22;5010205;28;20608;-48
2022/10/11 08:53:58;;;;;;;11.20;2.67;;;;;;;12.55;89.18;102240.25;5012678;28;20280;-47
2022/10/11 08:56:26;;;;;;;12.50;2.20;;;;;;;12.58;88.63;102245.53;5017244;28;20274;-45
2022/10/11 08:59:12;;;;;;;9.88;2.47;;;;;;;12.48;87.93;102251.19;5023305;28;20184;-45
2022/10/11 09:01:52;;;;;;;13.77;3.05;;;;;;;12.53;87.94;102251.97;5007328;28;20196;-46
2022/10/11 09:04:18;;;;;;;8.27;2.08;;;;;;;12.82;87.94;102250.38;5009228;28;20295;-46
2022/10/11 09:06:50;;;;;;;15.50;2.88;;;;;;;12.50;88.04;102249.34;5014170;28;20220;-47
2022/10/11 09:09:44;;;;;;;10.68;2.55;;;;;;;12.74;87.91;102258.63;5008627;28;20225;-46
2022/10/11 09:12:32;;;;;;;11.75;2.17;;;;;;;12.96;87.47;102250.91;5020784;28;20203;-49
2022/10/11 09:15:25;;;;;;;14.25;2.60;;;;;;;13.03;87.67;102259.69;5016568;28;20241;-47
2022/10/11 09:18:13;;;;;;;8.70;2.28;;;;;;;12.98;87.62;102262.50;5010678;28;20189;-44
2022/10/11 09:20:50;;;;;;;9.13;2.00;;;;;;;13.15;86.82;102270.16;5010389;28;20227;-45
2022/10/11 09:23:37;;;;;;;9.02;2.10;;;;;;;12.85;86.42;102269.13;5005368;28;20276;-49
2022/10/11 09:26:22;;;;;;;11.35;2.20;;;;;;;13.20;86.27;102274.47;5016797;28;20200;-47
2022/10/11 09:29:05;;;;;;;8.55;1.92;;;;;;;13.65;86.40;102267.06;5009589;28;20633;-48
2022/10/11 09:31:32;;;;;;;12.57;2.55;;;;;;;13.76;85.06;102273.03;5033567;28;20635;-46
2022/10/11 09:34:05;;;;;;;12.27;2.63;;;;;;;13.71;84.78;102269.56;5033326;28;20255;-47
2022/10/11 09:36:39;;;;;;;12.60;2.22;;;;;;;13.58;84.27;102278.00;5017356;28;20227;-47
2022/10/11 09:39:31;;;;;;;8.48;2.05;;;;;;;13.72;83.77;102263.25;5013507;28;20276;-50
2022/10/11 09:42:00;;;;;;;13.55;2.35;;;;;;;14.07;84.47;102285.63;5020844;28;20737;-52
2022/10/11 09:44:31;;;;;;;10.10;2.45;;;;;;;13.86;83.46;102269.13;5013817;28;20199;-46
2022/10/11 09:46:57;;;;;;;13.13;2.70;;;;;;;13.69;83.47;102274.13;5014269;28;20188;-52
2022/10/11 09:49:39;;;;;;;8.77;2.63;;;;;;;13.98;82.50;102276.88;5019212;28;20615;-47
2022/10/11 09:52:14;;;;;;;10.43;2.53;;;;;;;13.93;82.62;102273.44;5014175;28;20235;-46
2022/10/11 09:54:45;;;;;;;10.32;2.72;;;;;;;13.64;81.98;102278.75;5013731;28;20323;-47
2022/10/11 09:57:20;;;;;;;10.60;2.15;;;;;;;13.97;82.13;102282.28;5009588;28;20180;-44
2022/10/11 09:59:57;;;;;;;12.68;2.13;;;;;;;13.94;82.46;102282.38;5008850;28;20306;-45
2022/10/11 10:02:23;;;;;;;9.25;2.53;;;;;;;14.12;82.30;102287.22;5002559;28;20223;-45
2022/10/11 10:04:54;;;;;;;11.73;2.40;;;;;;;14.12;81.38;102297.13;5013281;28;20185;-45
2022/10/11 10:07:20;;;;;;;9.75;2.33;;;;;;;14.24;80.81;102291.38;5006543;28;20188;-45
2022/10/11 10:09:46;;;;;;;8.77;1.92;;;;;;;14.01;80.11;102290.28;5014341;28;20200;-46
2022/10/11 10:12:18;;;;;;;12.80;1.73;;;;;;;14.19;79.92;102293.31;5014610;28;20236;-49
2022/10/11 10:14:54;;;;;;;10.68;2.60;;;;;;;14.10;80.46;102290.91;5006779;28;20202;-46
2022/10/11 10:17:20;;;;;;;12.88;2.10;;;;;;;13.84;80.61;102287.19;5016786;28;20181;-46
2022/10/11 10:19:52;;;;;;;11.98;2.53;;;;;;;14.07;80.83;102293.69;5019158;28;20204;-51
2022/10/11 10:22:21;;;;;;;14.45;2.78;;;;;;;14.18;80.81;102278.09;5007556;28;20205;-47
2022/10/11 10:24:49;;;;;;;13.00;2.88;;;;;;;14.11;80.14;102285.47;5000291;28;20183;-44
2022/10/11 10:27:29;;;;;;;15.02;2.58;;;;;;;13.91;80.87;102283.38;5012483;28;20188;-52
2022/10/11 10:30:00;;;;;;;9.70;2.22;;;;;;;13.59;81.30;102279.75;5020077;28;20212;-49
2022/10/11 10:32:33;;;;;;;8.35;1.80;;;;;;;13.55;81.67;102278.06;5022876;28;20205;-46
2022/10/11 10:35:37;;;;;;;11.88;2.30;;;;;;;13.30;82.56;102288.63;5012419;28;20532;-51
2022/10/11 10:38:10;;;;;;;13.27;2.00;;;;;;;13.08;83.17;102290.97;5010074;28;20267;-46
2022/10/11 10:40:47;;;;;;;13.10;2.13;;;;;;;13.10;84.02;102291.81;5020357;28;20238;-46
2022/10/11 10:43:17;;;;;;;10.82;2.35;;;;;;;13.11;84.12;102292.69;5017720;28;20223;-45
2022/10/11 10:46:22;;;;;;;8.40;2.30;;;;;;;13.07;83.45;102283.78;5009234;28;20663;-50
2022/10/11 10:49:02;;;;;;;9.30;1.80;;;;;;;12.74;84.43;102294.47;5000409;28;20797;-47
2022/10/11 10:51:47;;;;;;;11.05;1.80;;;;;;;12.71;84.96;102289.16;5003543;28;20294;-47
2022/10/11 10:54:37;;;;;;;12.68;2.65;;;;;;;12.63;85.88;102304.59;5010654;28;20191;-51
2022/10/11 10:57:13;;;;;;;13.13;2.17;;;;;;;12.51;86.27;102304.88;5011041;28;20572;-47
2022/10/11 11:00:05;;;;;;;11.10;2.05;;;;;;;12.56;86.91;102316.41;5008375;28;20188;-47
2022/10/11 11:02:41;;;;;;;14.40;2.40;;;;;;;12.50;87.46;102314.72;4992950;28;20221;-48
2022/10/11 11:05:24;;;;;;;13.15;2.22;;;;;;;12.60;87.61;102315.44;5005412;28;20242;-48
2022/10/11 11:08:19;;;;;;;11.43;1.77;;;;;;;12.56;87.78;102321.78;5019802;28;20184;-47
2022/10/11 11:10:58;;;;;;;10.70;2.75;;;;;;;12.61;87.83;102317.19;5030045;28;20175;-48
2022/10/11 11:13:40;;;;;;;9.95;1.98;;;;;;;12.56;89.01;102324.47;5009753;28;20211;-52
2022/10/11 11:16:19;;;;;;;10.57;2.03;;;;;;;12.65;89.83;102326.06;5010332;28;20212;-50
2022/10/11 11:18:53;;;;;;;12.80;2.45;;;;;;;12.88;89.54;102323.75;5009638;28;20195;-47
2022/10/11 11:21:34;;;;;;;15.38;2.47;;;;;;;12.87;88.58;102319.25;4991761;28;20337;-50
2022/10/11 11:24:25;;;;;;;14.48;2.40;;;;;;;13.00;88.91;102319.84;5010216;28;20604;-46
2022/10/11 11:27:16;;;;;;;15.57;2.28;;;;;;;12.93;88.58;102320.94;5005657;28;20298;-48
2022/10/11 11:30:20;;;;;;;9.63;2.28;;;;;;;12.95;88.66;102319.09;5017636;28;20618;-46
2022/10/11 11:33:04;;;;;;;13.88;2.30;;;;;;;13.04;88.32;102318.00;5020764;28;20224;-46
2022/10/11 11:35:52;;;;;;;10.05;2.38;;;;;;;13.05;88.46;102325.13;5008114;28;20184;-47